createdAt,value
2022-10-13T00:00:26.047Z,1014.19
2022-10-13T00:01:26.088Z,1014.22
2022-10-13T00:02:26.019Z,1014.16
2022-10-13T00:03:25.999Z,1014.18
2022-10-13T00:04:26.001Z,1014.16
2022-10-13T00:05:25.991Z,1014.15
2022-10-13T00:06:25.991Z,1014.14
2022-10-13T00:07:25.963Z,1014.14
2022-10-13T00:08:25.952Z,1014.12
2022-10-13T00:09:25.931Z,1014.12
2022-10-13T00:10:25.950Z,1014.15
2022-10-13T00:11:25.923Z,1014.12
2022-10-13T00:12:25.902Z,1014.12
2022-10-13T00:13:25.891Z,1014.11
2022-10-13T00:14:25.894Z,1014.13
2022-10-13T00:15:25.887Z,1014.13
2022-10-13T00:16:25.907Z,1014.10
2022-10-13T00:17:25.852Z,1014.12
2022-10-13T00:18:25.832Z,1014.14
2022-10-13T00:19:25.824Z,1014.15
2022-10-13T00:20:25.813Z,1014.08
2022-10-13T00:21:25.812Z,1014.12
2022-10-13T00:22:25.818Z,1014.12
2022-10-13T00:23:25.786Z,1014.13
2022-10-13T00:24:25.775Z,1014.12
2022-10-13T00:25:25.764Z,1014.14
2022-10-13T00:26:25.766Z,1014.08
2022-10-13T00:27:25.733Z,1014.13
2022-10-13T00:28:25.737Z,1014.15
2022-10-13T00:29:25.714Z,1014.10
2022-10-13T00:30:25.697Z,1014.14
2022-10-13T00:31:25.705Z,1014.13
2022-10-13T00:32:25.686Z,1014.12
2022-10-13T00:33:25.680Z,1014.10
2022-10-13T00:34:25.655Z,1014.05
2022-10-13T00:35:25.657Z,1014.04
2022-10-13T00:36:25.636Z,1014.05
2022-10-13T00:37:25.629Z,1014.05
2022-10-13T00:38:25.675Z,1014.06
2022-10-13T00:39:25.609Z,1014.05
2022-10-13T00:40:25.616Z,1014.06
2022-10-13T00:41:25.587Z,1014.00
2022-10-13T00:42:25.567Z,1014.06
2022-10-13T00:43:25.567Z,1014.03
2022-10-13T00:44:25.598Z,1014.02
2022-10-13T00:45:25.546Z,1014.00
2022-10-13T00:46:25.526Z,1013.99
2022-10-13T00:47:25.545Z,1014.00
2022-10-13T00:48:25.508Z,1013.98
2022-10-13T00:49:25.503Z,1013.98
2022-10-13T00:50:25.498Z,1013.96
2022-10-13T00:51:25.479Z,1013.98
2022-10-13T00:52:25.458Z,1013.97
2022-10-13T00:53:25.449Z,1013.98
2022-10-13T00:54:25.439Z,1013.99
2022-10-13T00:55:25.442Z,1013.97
2022-10-13T00:56:25.439Z,1013.97
2022-10-13T00:57:25.410Z,1013.93
2022-10-13T00:58:25.398Z,1013.94
2022-10-13T00:59:25.381Z,1013.93
2022-10-13T01:00:25.374Z,1013.95
2022-10-13T01:01:25.367Z,1014.00
2022-10-13T01:02:25.351Z,1013.94
2022-10-13T01:03:25.342Z,1014.00
2022-10-13T01:04:25.334Z,1013.93
2022-10-13T01:05:25.372Z,1013.93
2022-10-13T01:06:25.315Z,1013.95
2022-10-13T01:07:25.299Z,1013.89
2022-10-13T01:08:25.281Z,1013.90
2022-10-13T01:09:25.274Z,1013.90
2022-10-13T01:10:25.282Z,1013.87
2022-10-13T01:11:25.252Z,1013.82
2022-10-13T01:12:25.232Z,1013.87
2022-10-13T01:13:25.234Z,1013.86
2022-10-13T01:14:25.214Z,1013.84
2022-10-13T01:15:25.214Z,1013.82
2022-10-13T01:16:25.193Z,1013.76
2022-10-13T01:17:25.186Z,1013.72
2022-10-13T01:18:25.169Z,1013.72
2022-10-13T01:19:25.165Z,1013.70
2022-10-13T01:20:25.163Z,1013.70
2022-10-13T01:21:25.144Z,1013.67
2022-10-13T01:22:25.125Z,1013.66
2022-10-13T01:23:25.906Z,1013.63
2022-10-13T01:24:25.104Z,1013.66
2022-10-13T01:25:25.118Z,1013.64
2022-10-13T01:26:25.084Z,1013.65
2022-10-13T01:27:25.075Z,1013.65
2022-10-13T01:28:25.114Z,1013.62
2022-10-13T01:29:25.056Z,1013.58
2022-10-13T01:30:25.055Z,1013.61
2022-10-13T01:31:25.054Z,1013.58
2022-10-13T01:32:25.225Z,1013.60
2022-10-13T01:33:25.004Z,1013.57
2022-10-13T01:34:25.125Z,1013.57
2022-10-13T01:35:25.005Z,1013.56
2022-10-13T01:36:24.966Z,1013.55
2022-10-13T01:37:24.966Z,1013.51
2022-10-13T01:38:24.948Z,1013.51
2022-10-13T01:39:24.937Z,1013.54
2022-10-13T01:40:24.937Z,1013.49
2022-10-13T01:41:24.918Z,1013.49
2022-10-13T01:42:24.977Z,1013.45
2022-10-13T01:43:24.897Z,1013.42
2022-10-13T01:44:24.879Z,1013.44
2022-10-13T01:45:24.877Z,1013.40
2022-10-13T01:46:24.857Z,1013.36
2022-10-13T01:47:24.860Z,1013.38
2022-10-13T01:48:24.829Z,1013.40
2022-10-13T01:49:24.846Z,1013.35
2022-10-13T01:50:24.830Z,1013.33
2022-10-13T01:51:24.812Z,1013.35
2022-10-13T01:52:24.788Z,1013.36
2022-10-13T01:53:24.787Z,1013.32
2022-10-13T01:54:24.781Z,1013.34
2022-10-13T01:55:24.778Z,1013.28
2022-10-13T01:56:24.769Z,1013.32
2022-10-13T01:57:24.740Z,1013.33
2022-10-13T01:58:24.730Z,1013.33
2022-10-13T01:59:24.724Z,1013.32
2022-10-13T02:00:24.748Z,1013.33
2022-10-13T02:01:24.705Z,1013.29
2022-10-13T02:02:24.680Z,1013.29
2022-10-13T02:03:24.674Z,1013.28
2022-10-13T02:04:24.653Z,1013.30
2022-10-13T02:05:24.661Z,1013.27
2022-10-13T02:06:24.632Z,1013.27
2022-10-13T02:07:24.641Z,1013.23
2022-10-13T02:08:24.612Z,1013.27
2022-10-13T02:09:24.609Z,1013.24
2022-10-13T02:10:24.607Z,1013.21
2022-10-13T02:11:24.591Z,1013.22
2022-10-13T02:12:24.584Z,1013.21
2022-10-13T02:13:24.570Z,1013.21
2022-10-13T02:14:24.565Z,1013.19
2022-10-13T02:15:24.543Z,1013.19
2022-10-13T02:16:24.529Z,1013.18
2022-10-13T02:17:24.523Z,1013.17
2022-10-13T02:18:24.515Z,1013.16
2022-10-13T02:19:24.504Z,1013.18
2022-10-13T02:20:24.496Z,1013.16
2022-10-13T02:21:24.473Z,1013.14
2022-10-13T02:22:24.464Z,1013.14
2022-10-13T02:23:24.462Z,1013.14
2022-10-13T02:24:24.436Z,1013.10
2022-10-13T02:25:24.456Z,1013.14
2022-10-13T02:26:24.426Z,1013.13
2022-10-13T02:27:24.423Z,1013.08
2022-10-13T02:28:24.430Z,1013.10
2022-10-13T02:29:24.396Z,1013.13
2022-10-13T02:30:24.388Z,1013.12
2022-10-13T02:31:24.376Z,1013.12
2022-10-13T02:32:24.356Z,1013.16
2022-10-13T02:33:24.346Z,1013.13
2022-10-13T02:34:24.411Z,1013.15
2022-10-13T02:35:24.337Z,1013.12
2022-10-13T02:36:24.306Z,1013.15
2022-10-13T02:37:24.319Z,1013.15
2022-10-13T02:38:24.297Z,1013.19
2022-10-13T02:39:24.288Z,1013.17
2022-10-13T02:40:24.289Z,1013.16
2022-10-13T02:41:24.266Z,1013.16
2022-10-13T02:42:24.357Z,1013.14
2022-10-13T02:43:24.246Z,1013.15
2022-10-13T02:44:24.242Z,1013.19
2022-10-13T02:45:24.398Z,1013.20
2022-10-13T02:46:24.214Z,1013.17
2022-10-13T02:47:24.199Z,1013.19
2022-10-13T02:48:24.190Z,1013.21
2022-10-13T02:49:24.185Z,1013.24
2022-10-13T02:50:24.160Z,1013.19
2022-10-13T02:51:24.159Z,1013.20
2022-10-13T02:52:24.150Z,1013.22
2022-10-13T02:53:24.141Z,1013.18
2022-10-13T02:54:24.119Z,1013.16
2022-10-13T02:55:24.133Z,1013.21
2022-10-13T02:56:24.100Z,1013.16
2022-10-13T02:57:24.090Z,1013.16
2022-10-13T02:58:24.081Z,1013.19
2022-10-13T02:59:24.081Z,1013.18
2022-10-13T03:00:24.069Z,1013.14
2022-10-13T03:01:24.050Z,1013.13
2022-10-13T03:02:24.201Z,1013.17
2022-10-13T03:03:24.022Z,1013.16
2022-10-13T03:04:24.020Z,1013.16
2022-10-13T03:05:24.022Z,1013.14
2022-10-13T03:06:23.993Z,1013.16
2022-10-13T03:07:24.002Z,1013.18
2022-10-13T03:08:23.971Z,1013.18
2022-10-13T03:09:23.965Z,1013.18
2022-10-13T03:10:23.962Z,1013.20
2022-10-13T03:11:23.944Z,1013.22
2022-10-13T03:12:23.937Z,1013.24
2022-10-13T03:13:23.924Z,1013.23
2022-10-13T03:14:23.907Z,1013.17
2022-10-13T03:15:23.915Z,1013.20
2022-10-13T03:16:23.905Z,1013.16
2022-10-13T03:17:23.876Z,1013.19
2022-10-13T03:18:23.862Z,1013.16
2022-10-13T03:19:23.858Z,1013.15
2022-10-13T03:20:23.844Z,1013.14
2022-10-13T03:21:23.845Z,1013.16
2022-10-13T03:22:23.821Z,1013.11
2022-10-13T03:23:23.814Z,1013.10
2022-10-13T03:24:23.807Z,1013.07
2022-10-13T03:25:23.796Z,1013.07
2022-10-13T03:26:23.789Z,1013.05
2022-10-13T03:27:23.767Z,1013.05
2022-10-13T03:28:23.817Z,1013.05
2022-10-13T03:29:23.747Z,1013.02
2022-10-13T03:30:23.752Z,1013.05
2022-10-13T03:31:23.738Z,1013.03
2022-10-13T03:32:23.727Z,1013.00
2022-10-13T03:33:23.696Z,1013.00
2022-10-13T03:34:23.699Z,1013.00
2022-10-13T03:35:23.678Z,1013.00
2022-10-13T03:36:23.678Z,1013.00
2022-10-13T03:37:23.687Z,1012.99
2022-10-13T03:38:23.662Z,1012.99
2022-10-13T03:39:23.647Z,1012.95
2022-10-13T03:40:23.629Z,1012.94
2022-10-13T03:41:23.637Z,1012.94
2022-10-13T03:42:23.608Z,1012.89
2022-10-13T03:43:23.667Z,1012.86
2022-10-13T03:44:23.580Z,1012.86
2022-10-13T03:45:23.578Z,1012.82
2022-10-13T03:46:23.581Z,1012.85
2022-10-13T03:47:23.562Z,1012.77
2022-10-13T03:48:23.541Z,1012.81
2022-10-13T03:49:23.559Z,1012.77
2022-10-13T03:50:23.598Z,1012.76
2022-10-13T03:51:23.520Z,1012.77
2022-10-13T03:52:23.514Z,1012.70
2022-10-13T03:53:23.502Z,1012.73
2022-10-13T03:54:23.486Z,1012.72
2022-10-13T03:55:23.471Z,1012.72
2022-10-13T03:56:23.473Z,1012.73
2022-10-13T03:57:23.459Z,1012.71
2022-10-13T03:58:23.441Z,1012.72
2022-10-13T03:59:23.666Z,1012.71
2022-10-13T04:00:23.419Z,1012.69
2022-10-13T04:01:23.483Z,1012.69
2022-10-13T04:02:23.408Z,1012.67
2022-10-13T04:03:23.382Z,1012.70
2022-10-13T04:04:23.383Z,1012.68
2022-10-13T04:05:23.392Z,1012.68
2022-10-13T04:06:23.354Z,1012.65
2022-10-13T04:07:23.545Z,1012.65
2022-10-13T04:08:23.323Z,1012.65
2022-10-13T04:09:23.434Z,1012.64
2022-10-13T04:10:23.305Z,1012.63
2022-10-13T04:11:23.315Z,1012.65
2022-10-13T04:12:23.814Z,1012.65
2022-10-13T04:13:23.283Z,1012.67
2022-10-13T04:14:23.264Z,1012.67
2022-10-13T04:15:23.263Z,1012.69
2022-10-13T04:16:23.248Z,1012.67
2022-10-13T04:17:23.237Z,1012.63
2022-10-13T04:18:23.214Z,1012.65
2022-10-13T04:19:23.224Z,1012.64
2022-10-13T04:20:23.209Z,1012.76
2022-10-13T04:21:23.186Z,1012.73
2022-10-13T04:22:23.352Z,1012.73
2022-10-13T04:23:23.176Z,1012.65
2022-10-13T04:24:23.160Z,1012.62
2022-10-13T04:25:23.179Z,1012.61
2022-10-13T04:26:23.136Z,1012.59
2022-10-13T04:27:23.118Z,1012.61
2022-10-13T04:28:23.134Z,1012.63
2022-10-13T04:29:23.106Z,1012.61
2022-10-13T04:30:23.098Z,1012.62
2022-10-13T04:31:23.078Z,1012.63
2022-10-13T04:32:23.122Z,1012.58
2022-10-13T04:33:23.056Z,1012.55
2022-10-13T04:34:23.040Z,1012.54
2022-10-13T04:35:23.048Z,1012.56
2022-10-13T04:36:23.020Z,1012.57
2022-10-13T04:37:23.013Z,1012.52
2022-10-13T04:38:23.015Z,1012.47
2022-10-13T04:39:22.992Z,1012.53
2022-10-13T04:40:22.989Z,1012.50
2022-10-13T04:41:22.972Z,1012.53
2022-10-13T04:42:23.399Z,1012.50
2022-10-13T04:43:22.950Z,1012.55
2022-10-13T04:44:22.934Z,1012.57
2022-10-13T04:45:22.934Z,1012.54
2022-10-13T04:46:22.922Z,1012.57
2022-10-13T04:47:22.931Z,1012.58
2022-10-13T04:48:23.023Z,1012.55
2022-10-13T04:49:22.883Z,1012.58
2022-10-13T04:50:22.907Z,1012.59
2022-10-13T04:51:22.860Z,1012.60
2022-10-13T04:52:22.938Z,1012.47
2022-10-13T04:53:22.844Z,1012.46
2022-10-13T04:54:22.831Z,1012.47
2022-10-13T04:55:22.832Z,1012.46
2022-10-13T04:56:23.025Z,1012.45
2022-10-13T04:57:22.804Z,1012.42
2022-10-13T04:58:22.803Z,1012.41
2022-10-13T04:59:22.792Z,1012.45
2022-10-13T05:00:22.821Z,1012.43
2022-10-13T05:01:22.772Z,1012.44
2022-10-13T05:02:22.861Z,1012.43
2022-10-13T05:03:22.752Z,1012.44
2022-10-13T05:04:22.930Z,1012.44
2022-10-13T05:05:22.724Z,1012.43
2022-10-13T05:06:22.694Z,1012.42
2022-10-13T05:07:22.695Z,1012.40
2022-10-13T05:08:22.675Z,1012.39
2022-10-13T05:09:22.666Z,1012.42
2022-10-13T05:10:22.665Z,1012.47
2022-10-13T05:11:22.644Z,1012.46
2022-10-13T05:12:22.981Z,1012.42
2022-10-13T05:13:22.625Z,1012.43
2022-10-13T05:14:22.616Z,1012.44
2022-10-13T05:15:22.606Z,1012.44
2022-10-13T05:16:22.586Z,1012.44
2022-10-13T05:17:22.576Z,1012.41
2022-10-13T05:18:22.566Z,1012.39
2022-10-13T05:19:22.561Z,1012.32
2022-10-13T05:20:22.571Z,1012.25
2022-10-13T05:21:22.539Z,1012.23
2022-10-13T05:22:22.778Z,1012.21
2022-10-13T05:23:22.516Z,1012.24
2022-10-13T05:24:22.497Z,1012.31
2022-10-13T05:25:22.507Z,1012.38
2022-10-13T05:26:22.477Z,1012.36
2022-10-13T05:27:22.468Z,1012.37
2022-10-13T05:28:22.527Z,1012.31
2022-10-13T05:29:22.449Z,1012.27
2022-10-13T05:30:22.439Z,1012.24
2022-10-13T05:31:22.430Z,1012.19
2022-10-13T05:32:22.717Z,1012.20
2022-10-13T05:33:22.415Z,1012.20
2022-10-13T05:34:22.399Z,1012.21
2022-10-13T05:35:22.479Z,1012.26
2022-10-13T05:36:22.395Z,1012.35
2022-10-13T05:37:22.359Z,1012.36
2022-10-13T05:38:25.889Z,1012.34
2022-10-13T05:39:22.347Z,1012.34
2022-10-13T05:40:22.332Z,1012.28
2022-10-13T05:41:22.331Z,1012.31
2022-10-13T05:42:22.676Z,1012.21
2022-10-13T05:43:22.300Z,1012.15
2022-10-13T05:44:22.280Z,1012.13
2022-10-13T05:45:22.272Z,1012.18
2022-10-13T05:46:22.472Z,1012.19
2022-10-13T05:47:22.253Z,1012.22
2022-10-13T05:48:22.234Z,1012.15
2022-10-13T05:49:22.231Z,1012.14
2022-10-13T05:50:22.212Z,1012.16
2022-10-13T05:51:22.212Z,1012.17
2022-10-13T05:52:22.466Z,1012.14
2022-10-13T05:53:22.192Z,1012.13
2022-10-13T05:54:22.171Z,1012.18
2022-10-13T05:55:22.163Z,1012.23
2022-10-13T05:56:22.243Z,1012.24
2022-10-13T05:57:22.133Z,1012.24
2022-10-13T05:58:22.125Z,1012.17
2022-10-13T05:59:26.763Z,1012.13
2022-10-13T06:00:23.095Z,1012.11
2022-10-13T06:01:22.105Z,1012.14
2022-10-13T06:02:22.316Z,1012.17
2022-10-13T06:03:22.066Z,1012.16
2022-10-13T06:04:22.055Z,1012.13
2022-10-13T06:05:22.054Z,1012.11
2022-10-13T06:06:22.049Z,1012.12
2022-10-13T06:07:22.036Z,1012.16
2022-10-13T06:08:22.015Z,1012.16
2022-10-13T06:09:22.008Z,1012.10
2022-10-13T06:10:22.007Z,1012.08
2022-10-13T06:11:22.004Z,1012.04
2022-10-13T06:12:22.350Z,1012.07
2022-10-13T06:13:21.967Z,1012.06
2022-10-13T06:14:21.948Z,1012.10
2022-10-13T06:15:27.066Z,1012.15
2022-10-13T06:16:22.927Z,1012.12
2022-10-13T06:17:21.918Z,1012.05
2022-10-13T06:18:21.911Z,1012.01
2022-10-13T06:19:21.926Z,1012.02
2022-10-13T06:20:21.914Z,1012.04
2022-10-13T06:21:21.871Z,1012.05
2022-10-13T06:22:22.563Z,1012.10
2022-10-13T06:23:21.859Z,1012.11
2022-10-13T06:24:21.828Z,1012.08
2022-10-13T06:25:21.871Z,1012.08
2022-10-13T06:26:21.845Z,1012.05
2022-10-13T06:27:21.800Z,1012.06
2022-10-13T06:28:21.811Z,1012.01
2022-10-13T06:29:21.780Z,1012.05
2022-10-13T06:30:21.771Z,1012.09
2022-10-13T06:31:21.770Z,1012.11
2022-10-13T06:32:22.367Z,1012.11
2022-10-13T06:33:21.742Z,1012.12
2022-10-13T06:34:21.740Z,1012.12
2022-10-13T06:35:21.716Z,1012.14
2022-10-13T06:36:21.721Z,1012.10
2022-10-13T06:37:26.940Z,1012.10
2022-10-13T06:38:22.691Z,1012.03
2022-10-13T06:39:21.671Z,1011.99
2022-10-13T06:40:21.663Z,1011.97
2022-10-13T06:41:21.664Z,1011.90
2022-10-13T06:42:22.056Z,1011.92
2022-10-13T06:43:21.635Z,1011.94
2022-10-13T06:44:21.626Z,1011.98
2022-10-13T06:45:21.612Z,1012.01
2022-10-13T06:46:21.768Z,1012.00
2022-10-13T06:47:21.594Z,1012.02
2022-10-13T06:48:21.573Z,1012.08
2022-10-13T06:49:21.573Z,1012.15
2022-10-13T06:50:21.544Z,1012.16
2022-10-13T06:51:21.571Z,1012.24
2022-10-13T06:52:21.732Z,1012.19
2022-10-13T06:53:21.506Z,1012.19
2022-10-13T06:54:21.493Z,1012.17
2022-10-13T06:55:21.498Z,1012.19
2022-10-13T06:56:21.514Z,1012.18
2022-10-13T06:57:21.465Z,1012.15
2022-10-13T06:58:21.471Z,1012.14
2022-10-13T06:59:21.450Z,1012.13
2022-10-13T07:00:21.469Z,1012.08
2022-10-13T07:01:21.465Z,1012.12
2022-10-13T07:02:21.880Z,1012.14
2022-10-13T07:03:21.398Z,1012.13
2022-10-13T07:04:21.401Z,1012.10
2022-10-13T07:05:21.376Z,1012.11
2022-10-13T07:06:21.386Z,1012.06
2022-10-13T07:07:21.356Z,1012.08
2022-10-13T07:08:21.358Z,1012.08
2022-10-13T07:09:21.341Z,1012.08
2022-10-13T07:10:21.319Z,1012.12
2022-10-13T07:11:21.319Z,1012.14
2022-10-13T07:12:21.665Z,1012.13
2022-10-13T07:14:21.279Z,1012.10
2022-10-13T07:15:21.268Z,1012.08
2022-10-13T07:16:21.279Z,1012.07
2022-10-13T07:17:21.727Z,1012.05
2022-10-13T07:18:21.243Z,1012.05
2022-10-13T07:19:21.229Z,1012.06
2022-10-13T07:20:21.250Z,1012.02
2022-10-13T07:21:21.221Z,1011.99
2022-10-13T07:22:21.219Z,1011.98
2022-10-13T07:23:21.180Z,1012.00
2022-10-13T07:24:21.170Z,1012.05
2022-10-13T07:25:21.255Z,1012.02
2022-10-13T07:26:21.170Z,1012.05
2022-10-13T07:27:21.453Z,1012.02
2022-10-13T07:28:21.176Z,1012.07
2022-10-13T07:29:21.113Z,1012.10
2022-10-13T07:30:21.196Z,1012.13
2022-10-13T07:31:21.117Z,1012.14
2022-10-13T07:32:21.210Z,1012.22
2022-10-13T07:33:21.278Z,1012.18
2022-10-13T07:34:21.073Z,1012.20
2022-10-13T07:35:21.053Z,1012.21
2022-10-13T07:36:21.073Z,1012.20
2022-10-13T07:37:21.431Z,1012.17
2022-10-13T07:38:21.025Z,1012.16
2022-10-13T07:39:21.003Z,1012.11
2022-10-13T07:40:21.088Z,1012.10
2022-10-13T07:41:21.044Z,1012.12
2022-10-13T07:42:20.974Z,1012.08
2022-10-13T07:43:21.695Z,1012.12
2022-10-13T07:44:21.009Z,1012.08
2022-10-13T07:45:20.949Z,1012.09
2022-10-13T07:46:20.964Z,1012.04
2022-10-13T07:47:21.266Z,1012.05
2022-10-13T07:48:23.890Z,1012.04
2022-10-13T07:49:20.895Z,1012.05
2022-10-13T07:50:20.915Z,1012.05
2022-10-13T07:51:20.887Z,1012.00
2022-10-13T07:52:21.267Z,1011.95
2022-10-13T07:53:20.854Z,1011.94
2022-10-13T07:54:23.762Z,1011.93
2022-10-13T07:55:20.829Z,1011.95
2022-10-13T07:56:20.828Z,1011.90
2022-10-13T07:57:20.820Z,1011.92
2022-10-13T07:58:20.798Z,1011.86
2022-10-13T07:59:20.789Z,1011.86
2022-10-13T08:00:20.869Z,1011.91
2022-10-13T08:01:20.826Z,1011.97
2022-10-13T08:02:21.173Z,1011.97
2022-10-13T08:03:20.773Z,1011.94
2022-10-13T08:04:20.734Z,1011.99
2022-10-13T08:05:20.762Z,1012.00
2022-10-13T08:06:20.778Z,1011.97
2022-10-13T08:07:21.097Z,1011.99
2022-10-13T08:08:20.731Z,1012.02
2022-10-13T08:09:20.710Z,1012.01
2022-10-13T08:10:20.671Z,1011.98
2022-10-13T08:11:20.733Z,1011.95
2022-10-13T08:12:20.974Z,1011.92
2022-10-13T08:13:20.650Z,1011.86
2022-10-13T08:14:20.620Z,1011.80
2022-10-13T08:15:20.635Z,1011.81
2022-10-13T08:16:20.602Z,1011.88
2022-10-13T08:17:20.871Z,1011.92
2022-10-13T08:18:20.574Z,1011.95
2022-10-13T08:19:20.565Z,1011.96
2022-10-13T08:20:20.566Z,1011.96
2022-10-13T08:22:24.746Z,1011.88
2022-10-13T08:23:21.525Z,1011.93
2022-10-13T08:24:20.508Z,1011.91
2022-10-13T08:25:20.505Z,1011.93
2022-10-13T08:26:20.506Z,1011.94
2022-10-13T08:27:20.773Z,1011.90
2022-10-13T08:28:20.485Z,1011.93
2022-10-13T08:29:22.585Z,1011.92
2022-10-13T08:30:20.673Z,1011.94
2022-10-13T08:31:20.627Z,1012.00
2022-10-13T08:32:21.016Z,1011.98
2022-10-13T08:33:20.417Z,1011.97
2022-10-13T08:34:20.408Z,1011.93
2022-10-13T08:35:20.388Z,1011.96
2022-10-13T08:36:20.377Z,1011.94
2022-10-13T08:37:20.379Z,1011.90
2022-10-13T08:38:20.379Z,1011.91
2022-10-13T08:39:20.351Z,1011.84
2022-10-13T08:40:20.343Z,1011.82
2022-10-13T08:41:20.334Z,1011.82
2022-10-13T08:42:20.724Z,1011.86
2022-10-13T08:43:20.301Z,1011.84
2022-10-13T08:45:40.473Z,1011.86
2022-10-13T08:46:21.279Z,1011.87
2022-10-13T08:47:20.262Z,1011.84
2022-10-13T08:48:20.241Z,1011.83
2022-10-13T08:49:20.340Z,1011.82
2022-10-13T08:50:20.264Z,1011.79
2022-10-13T08:51:20.225Z,1011.76
2022-10-13T08:52:20.524Z,1011.82
2022-10-13T08:53:20.439Z,1011.75
2022-10-13T08:54:20.193Z,1011.76
2022-10-13T08:55:20.176Z,1011.79
2022-10-13T08:56:20.164Z,1011.74
2022-10-13T08:57:20.321Z,1011.72
2022-10-13T08:58:20.136Z,1011.68
2022-10-13T08:59:20.126Z,1011.67
2022-10-13T09:00:20.113Z,1011.67
2022-10-13T09:01:20.132Z,1011.69
2022-10-13T09:02:20.096Z,1011.71
2022-10-13T09:03:20.082Z,1011.70
2022-10-13T09:04:20.069Z,1011.66
2022-10-13T09:05:20.059Z,1011.67
2022-10-13T09:06:20.062Z,1011.61
2022-10-13T09:07:20.229Z,1011.63
2022-10-13T09:08:20.031Z,1011.63
2022-10-13T09:09:20.011Z,1011.64
2022-10-13T09:10:20.129Z,1011.63
2022-10-13T09:11:20.006Z,1011.65
2022-10-13T09:12:20.291Z,1011.65
2022-10-13T09:13:19.959Z,1011.65
2022-10-13T09:14:19.951Z,1011.68
2022-10-13T09:15:19.949Z,1011.69
2022-10-13T09:16:19.941Z,1011.71
2022-10-13T09:17:19.927Z,1011.65
2022-10-13T09:18:19.901Z,1011.66
2022-10-13T09:19:19.901Z,1011.63
2022-10-13T09:20:19.910Z,1011.63
2022-10-13T09:21:19.892Z,1011.66
2022-10-13T09:22:20.077Z,1011.62
2022-10-13T09:23:19.865Z,1011.60
2022-10-13T09:24:19.842Z,1011.60
2022-10-13T09:25:19.835Z,1011.62
2022-10-13T09:26:19.835Z,1011.60
2022-10-13T09:27:19.824Z,1011.57
2022-10-13T09:28:19.869Z,1011.53
2022-10-13T09:29:19.786Z,1011.56
2022-10-13T09:30:19.767Z,1011.56
2022-10-13T09:31:19.776Z,1011.58
2022-10-13T09:32:20.092Z,1011.53
2022-10-13T09:33:19.736Z,1011.55
2022-10-13T09:34:19.727Z,1011.56
2022-10-13T09:35:19.716Z,1011.56
2022-10-13T09:36:19.868Z,1011.57
2022-10-13T09:37:19.697Z,1011.58
2022-10-13T09:38:19.796Z,1011.60
2022-10-13T09:39:19.672Z,1011.61
2022-10-13T09:40:19.669Z,1011.63
2022-10-13T09:41:19.679Z,1011.59
2022-10-13T09:42:19.860Z,1011.60
2022-10-13T09:43:19.631Z,1011.56
2022-10-13T09:44:20.091Z,1011.53
2022-10-13T09:45:19.607Z,1011.56
2022-10-13T09:46:19.691Z,1011.58
2022-10-13T09:47:19.580Z,1011.59
2022-10-13T09:48:19.588Z,1011.58
2022-10-13T09:49:19.561Z,1011.56
2022-10-13T09:50:19.572Z,1011.53
2022-10-13T09:51:19.558Z,1011.55
2022-10-13T09:52:19.862Z,1011.53
2022-10-13T09:53:19.512Z,1011.52
2022-10-13T09:54:19.504Z,1011.52
2022-10-13T09:55:19.502Z,1011.49
2022-10-13T09:56:19.645Z,1011.49
2022-10-13T09:57:19.474Z,1011.45
2022-10-13T09:58:19.464Z,1011.46
2022-10-13T09:59:19.463Z,1011.47
2022-10-13T10:00:19.435Z,1011.46
2022-10-13T10:01:19.434Z,1011.47
2022-10-13T10:02:21.303Z,1011.48
2022-10-13T10:03:19.417Z,1011.47
2022-10-13T10:04:19.527Z,1011.45
2022-10-13T10:05:19.385Z,1011.43
2022-10-13T10:06:20.006Z,1011.38
2022-10-13T10:07:19.512Z,1011.39
2022-10-13T10:08:20.547Z,1011.36
2022-10-13T10:09:19.338Z,1011.33
2022-10-13T10:10:19.341Z,1011.38
2022-10-13T10:11:19.319Z,1011.34
2022-10-13T10:12:21.855Z,1011.34
2022-10-13T10:13:19.289Z,1011.37
2022-10-13T10:14:19.310Z,1011.37
2022-10-13T10:15:19.288Z,1011.40
2022-10-13T10:16:19.272Z,1011.38
2022-10-13T10:17:19.424Z,1011.36
2022-10-13T10:18:19.242Z,1011.32
2022-10-13T10:19:19.231Z,1011.35
2022-10-13T10:20:19.241Z,1011.27
2022-10-13T10:21:19.222Z,1011.27
2022-10-13T10:22:19.215Z,1011.22
2022-10-13T10:23:19.206Z,1011.24
2022-10-13T10:24:19.183Z,1011.24
2022-10-13T10:25:19.183Z,1011.23
2022-10-13T10:26:23.514Z,1011.20
2022-10-13T10:28:19.183Z,1011.13
2022-10-13T10:29:19.137Z,1011.15
2022-10-13T10:30:19.131Z,1011.18
2022-10-13T10:31:19.139Z,1011.20
2022-10-13T10:32:19.347Z,1011.16
2022-10-13T10:33:19.085Z,1011.16
2022-10-13T10:34:19.081Z,1011.14
2022-10-13T10:35:19.076Z,1011.11
2022-10-13T10:36:19.070Z,1011.10
2022-10-13T10:37:21.346Z,1011.09
2022-10-13T10:38:20.031Z,1011.06
2022-10-13T10:39:19.016Z,1011.06
2022-10-13T10:40:19.021Z,1011.04
2022-10-13T10:41:18.997Z,1011.04
2022-10-13T10:42:19.314Z,1011.02
2022-10-13T10:43:18.971Z,1011.04
2022-10-13T10:44:19.000Z,1011.02
2022-10-13T10:45:18.951Z,1011.05
2022-10-13T10:46:18.954Z,1011.07
2022-10-13T10:47:22.483Z,1011.04
2022-10-13T10:48:18.932Z,1010.98
2022-10-13T10:49:18.902Z,1011.03
2022-10-13T10:50:18.922Z,1010.99
2022-10-13T10:51:18.881Z,1010.92
2022-10-13T10:52:18.884Z,1010.94
2022-10-13T10:53:18.864Z,1010.91
2022-10-13T10:54:18.858Z,1010.84
2022-10-13T10:55:18.865Z,1010.83
2022-10-13T10:56:18.834Z,1010.80
2022-10-13T10:57:19.085Z,1010.84
2022-10-13T10:58:18.816Z,1010.81
2022-10-13T10:59:18.798Z,1010.78
2022-10-13T11:00:18.818Z,1010.75
2022-10-13T11:01:18.849Z,1010.71
2022-10-13T11:02:19.097Z,1010.75
2022-10-13T11:03:18.749Z,1010.73
2022-10-13T11:04:18.746Z,1010.73
2022-10-13T11:05:18.731Z,1010.68
2022-10-13T11:06:18.737Z,1010.72
2022-10-13T11:07:18.939Z,1010.68
2022-10-13T11:08:18.703Z,1010.73
2022-10-13T11:09:18.682Z,1010.74
2022-10-13T11:10:18.690Z,1010.68
2022-10-13T11:11:21.885Z,1010.69
2022-10-13T11:12:20.092Z,1010.66
2022-10-13T11:13:18.644Z,1010.71
2022-10-13T11:14:18.637Z,1010.70
2022-10-13T11:15:18.634Z,1010.69
2022-10-13T11:16:18.681Z,1010.73
2022-10-13T11:17:18.698Z,1010.72
2022-10-13T11:18:21.960Z,1010.72
2022-10-13T11:19:18.575Z,1010.75
2022-10-13T11:20:18.580Z,1010.73
2022-10-13T11:21:18.565Z,1010.75
2022-10-13T11:22:18.973Z,1010.73
2022-10-13T11:23:18.580Z,1010.70
2022-10-13T11:24:18.546Z,1010.69
2022-10-13T11:25:18.537Z,1010.69
2022-10-13T11:26:18.520Z,1010.69
2022-10-13T11:27:18.486Z,1010.68
2022-10-13T11:28:18.521Z,1010.66
2022-10-13T11:29:18.481Z,1010.69
2022-10-13T11:30:18.472Z,1010.68
2022-10-13T11:31:18.460Z,1010.66
2022-10-13T11:32:18.843Z,1010.63
2022-10-13T11:33:18.432Z,1010.60
2022-10-13T11:34:18.423Z,1010.64
2022-10-13T11:35:18.402Z,1010.59
2022-10-13T11:36:18.401Z,1010.54
2022-10-13T11:37:18.387Z,1010.53
2022-10-13T11:38:18.371Z,1010.49
2022-10-13T11:39:18.426Z,1010.47
2022-10-13T11:40:18.355Z,1010.44
2022-10-13T11:41:18.352Z,1010.48
2022-10-13T11:42:18.500Z,1010.47
2022-10-13T11:43:18.317Z,1010.46
2022-10-13T11:44:18.310Z,1010.42
2022-10-13T11:45:18.286Z,1010.38
2022-10-13T11:46:18.296Z,1010.41
2022-10-13T11:47:18.570Z,1010.34
2022-10-13T11:48:18.258Z,1010.34
2022-10-13T11:49:18.256Z,1010.38
2022-10-13T11:50:18.248Z,1010.35
2022-10-13T11:51:18.237Z,1010.35
2022-10-13T11:52:18.649Z,1010.34
2022-10-13T11:53:18.198Z,1010.41
2022-10-13T11:54:18.212Z,1010.33
2022-10-13T11:55:18.183Z,1010.33
2022-10-13T11:56:18.195Z,1010.33
2022-10-13T11:57:18.150Z,1010.34
2022-10-13T11:58:18.160Z,1010.37
2022-10-13T11:59:18.139Z,1010.33
2022-10-13T12:00:18.133Z,1010.35
2022-10-13T12:01:18.132Z,1010.28
2022-10-13T12:02:19.237Z,1010.31
2022-10-13T12:03:18.162Z,1010.27
2022-10-13T12:04:18.083Z,1010.34
2022-10-13T12:05:18.076Z,1010.29
2022-10-13T12:06:18.073Z,1010.23
2022-10-13T12:07:18.064Z,1010.26
2022-10-13T12:08:18.034Z,1010.25
2022-10-13T12:09:18.040Z,1010.27